sensor_id;sensor_type;location;lat;lon;timestamp;pressure;altitude;pressure_sealevel;temperature
72278;BMP280;61204;49.980;8.358;2023-12-20T00:00:28;100495.34;;;5.13
72278;BMP280;61204;49.980;8.358;2023-12-20T00:02:54;100488.13;;;5.16
72278;BMP280;61204;49.980;8.358;2023-12-20T00:05:19;100495.00;;;5.17
72278;BMP280;61204;49.980;8.358;2023-12-20T00:07:45;100501.34;;;5.19
72278;BMP280;61204;49.980;8.358;2023-12-20T00:10:10;100500.22;;;5.15
72278;BMP280;61204;49.980;8.358;2023-12-20T00:12:37;100497.50;;;5.15
72278;BMP280;61204;49.980;8.358;2023-12-20T00:15:03;100489.91;;;5.13
72278;BMP280;61204;49.980;8.358;2023-12-20T00:17:32;100502.03;;;5.12
72278;BMP280;61204;49.980;8.358;2023-12-20T00:19:57;100490.09;;;5.15
72278;BMP280;61204;49.980;8.358;2023-12-20T00:22:23;100489.34;;;5.07
72278;BMP280;61204;49.980;8.358;2023-12-20T00:24:48;100477.03;;;5.06
72278;BMP280;61204;49.980;8.358;2023-12-20T00:27:14;100481.19;;;5.07
72278;BMP280;61204;49.980;8.358;2023-12-20T00:29:42;100481.38;;;5.09
72278;BMP280;61204;49.980;8.358;2023-12-20T00:32:08;100476.50;;;5.08
72278;BMP280;61204;49.980;8.358;2023-12-20T00:34:33;100471.06;;;5.08
72278;BMP280;61204;49.980;8.358;2023-12-20T00:37:01;100468.88;;;5.06
72278;BMP280;61204;49.980;8.358;2023-12-20T00:39:27;100463.63;;;5.08
72278;BMP280;61204;49.980;8.358;2023-12-20T00:41:52;100467.81;;;5.09
72278;BMP280;61204;49.980;8.358;2023-12-20T00:44:18;100462.16;;;5.07
72278;BMP280;61204;49.980;8.358;2023-12-20T00:46:44;100469.75;;;5.01
72278;BMP280;61204;49.980;8.358;2023-12-20T00:49:11;100466.53;;;5.10
72278;BMP280;61204;49.980;8.358;2023-12-20T00:51:37;100466.16;;;5.14
72278;BMP280;61204;49.980;8.358;2023-12-20T00:54:04;100466.88;;;5.14
72278;BMP280;61204;49.980;8.358;2023-12-20T00:56:30;100460.00;;;5.13
72278;BMP280;61204;49.980;8.358;2023-12-20T00:58:55;100465.09;;;5.17
72278;BMP280;61204;49.980;8.358;2023-12-20T01:01:24;100457.28;;;5.13
72278;BMP280;61204;49.980;8.358;2023-12-20T01:03:49;100449.34;;;5.15
72278;BMP280;61204;49.980;8.358;2023-12-20T01:06:18;100453.13;;;5.12
72278;BMP280;61204;49.980;8.358;2023-12-20T01:08:45;100439.72;;;5.14
72278;BMP280;61204;49.980;8.358;2023-12-20T01:11:11;100449.00;;;5.19
72278;BMP280;61204;49.980;8.358;2023-12-20T01:13:36;100453.50;;;5.16
72278;BMP280;61204;49.980;8.358;2023-12-20T01:16:02;100450.78;;;5.16
72278;BMP280;61204;49.980;8.358;2023-12-20T01:18:29;100443.69;;;5.13
72278;BMP280;61204;49.980;8.358;2023-12-20T01:20:55;100449.34;;;5.15
72278;BMP280;61204;49.980;8.358;2023-12-20T01:23:20;100446.78;;;5.17
72278;BMP280;61204;49.980;8.358;2023-12-20T01:25:46;100447.69;;;5.12
72278;BMP280;61204;49.980;8.358;2023-12-20T01:28:11;100450.94;;;5.11
72278;BMP280;61204;49.980;8.358;2023-12-20T01:30:37;100449.13;;;5.06
72278;BMP280;61204;49.980;8.358;2023-12-20T01:33:03;100457.28;;;5.06
72278;BMP280;61204;49.980;8.358;2023-12-20T01:35:28;100450.56;;;5.07
72278;BMP280;61204;49.980;8.358;2023-12-20T01:37:57;100444.28;;;5.12
72278;BMP280;61204;49.980;8.358;2023-12-20T01:40:22;100442.63;;;5.09
72278;BMP280;61204;49.980;8.358;2023-12-20T01:43:01;100445.34;;;5.09
72278;BMP280;61204;49.980;8.358;2023-12-20T01:45:37;100448.19;;;5.03
72278;BMP280;61204;49.980;8.358;2023-12-20T01:48:04;100454.00;;;5.07
72278;BMP280;61204;49.980;8.358;2023-12-20T01:50:32;100465.44;;;5.06
72278;BMP280;61204;49.980;8.358;2023-12-20T01:53:07;100465.81;;;5.10
72278;BMP280;61204;49.980;8.358;2023-12-20T01:55:40;100457.50;;;5.15
72278;BMP280;61204;49.980;8.358;2023-12-20T01:58:07;100460.59;;;5.19
72278;BMP280;61204;49.980;8.358;2023-12-20T02:00:36;100469.09;;;5.16
72278;BMP280;61204;49.980;8.358;2023-12-20T02:03:05;100474.22;;;5.27
72278;BMP280;61204;49.980;8.358;2023-12-20T02:05:32;100463.34;;;5.27
72278;BMP280;61204;49.980;8.358;2023-12-20T02:08:03;100462.63;;;5.26
72278;BMP280;61204;49.980;8.358;2023-12-20T02:10:31;100457.53;;;5.31
72278;BMP280;61204;49.980;8.358;2023-12-20T02:12:57;100477.09;;;5.37
72278;BMP280;61204;49.980;8.358;2023-12-20T02:15:23;100458.44;;;5.41
72278;BMP280;61204;49.980;8.358;2023-12-20T02:17:50;100464.59;;;5.41
72278;BMP280;61204;49.980;8.358;2023-12-20T02:20:16;100449.91;;;5.37
72278;BMP280;61204;49.980;8.358;2023-12-20T02:22:44;100445.75;;;5.28
72278;BMP280;61204;49.980;8.358;2023-12-20T02:25:10;100430.00;;;5.34
72278;BMP280;61204;49.980;8.358;2023-12-20T02:27:36;100425.06;;;5.25
72278;BMP280;61204;49.980;8.358;2023-12-20T02:30:02;100434.16;;;5.27
72278;BMP280;61204;49.980;8.358;2023-12-20T02:32:30;100437.56;;;5.20
72278;BMP280;61204;49.980;8.358;2023-12-20T02:34:57;100440.63;;;5.17
72278;BMP280;61204;49.980;8.358;2023-12-20T02:37:23;100446.06;;;5.17
72278;BMP280;61204;49.980;8.358;2023-12-20T02:39:49;100449.84;;;5.14
72278;BMP280;61204;49.980;8.358;2023-12-20T02:42:17;100441.19;;;5.08
72278;BMP280;61204;49.980;8.358;2023-12-20T02:44:43;100443.91;;;5.08
72278;BMP280;61204;49.980;8.358;2023-12-20T02:47:08;100432.47;;;5.09
72278;BMP280;61204;49.980;8.358;2023-12-20T02:49:34;100435.00;;;5.15
72278;BMP280;61204;49.980;8.358;2023-12-20T02:52:00;100427.97;;;5.19
72278;BMP280;61204;49.980;8.358;2023-12-20T02:54:25;100441.75;;;5.29
72278;BMP280;61204;49.980;8.358;2023-12-20T02:56:51;100461.50;;;5.37
72278;BMP280;61204;49.980;8.358;2023-12-20T02:59:16;100457.56;;;5.46
72278;BMP280;61204;49.980;8.358;2023-12-20T03:01:43;100454.66;;;5.44
72278;BMP280;61204;49.980;8.358;2023-12-20T03:04:11;100452.50;;;5.42
72278;BMP280;61204;49.980;8.358;2023-12-20T03:06:38;100452.50;;;5.42
72278;BMP280;61204;49.980;8.358;2023-12-20T03:09:04;100451.75;;;5.49
72278;BMP280;61204;49.980;8.358;2023-12-20T03:11:32;100447.41;;;5.62
72278;BMP280;61204;49.980;8.358;2023-12-20T03:13:58;100455.94;;;5.66
72278;BMP280;61204;49.980;8.358;2023-12-20T03:16:23;100462.69;;;5.72
72278;BMP280;61204;49.980;8.358;2023-12-20T03:18:49;100465.03;;;5.68
72278;BMP280;61204;49.980;8.358;2023-12-20T03:21:15;100464.81;;;5.66
72278;BMP280;61204;49.980;8.358;2023-12-20T03:23:41;100466.47;;;5.69
72278;BMP280;61204;49.980;8.358;2023-12-20T03:26:07;100473.00;;;5.66
72278;BMP280;61204;49.980;8.358;2023-12-20T03:28:33;100485.16;;;5.73
72278;BMP280;61204;49.980;8.358;2023-12-20T03:31:05;100487.53;;;5.76
72278;BMP280;61204;49.980;8.358;2023-12-20T03:33:33;100494.59;;;5.79
72278;BMP280;61204;49.980;8.358;2023-12-20T03:35:58;100500.03;;;5.79
72278;BMP280;61204;49.980;8.358;2023-12-20T03:38:24;100507.84;;;5.91
72278;BMP280;61204;49.980;8.358;2023-12-20T03:40:52;100496.59;;;5.94
72278;BMP280;61204;49.980;8.358;2023-12-20T03:43:17;100508.38;;;5.89
72278;BMP280;61204;49.980;8.358;2023-12-20T03:45:43;100491.13;;;5.87
72278;BMP280;61204;49.980;8.358;2023-12-20T03:48:08;100503.50;;;5.88
72278;BMP280;61204;49.980;8.358;2023-12-20T03:50:35;100506.56;;;5.92
72278;BMP280;61204;49.980;8.358;2023-12-20T03:53:01;100510.72;;;6.00
72278;BMP280;61204;49.980;8.358;2023-12-20T03:55:27;100510.00;;;6.00
72278;BMP280;61204;49.980;8.358;2023-12-20T03:57:53;100498.06;;;6.03
72278;BMP280;61204;49.980;8.358;2023-12-20T04:00:18;100497.50;;;6.04
72278;BMP280;61204;49.980;8.358;2023-12-20T04:02:44;100505.13;;;6.06
72278;BMP280;61204;49.980;8.358;2023-12-20T04:05:10;100502.56;;;6.08
72278;BMP280;61204;49.980;8.358;2023-12-20T04:07:36;100507.47;;;6.10
72278;BMP280;61204;49.980;8.358;2023-12-20T04:10:02;100510.56;;;6.14
72278;BMP280;61204;49.980;8.358;2023-12-20T04:12:29;100495.69;;;6.15
72278;BMP280;61204;49.980;8.358;2023-12-20T04:14:56;100502.94;;;6.20
72278;BMP280;61204;49.980;8.358;2023-12-20T04:17:22;100504.19;;;6.26
72278;BMP280;61204;49.980;8.358;2023-12-20T04:19:49;100513.78;;;6.35
72278;BMP280;61204;49.980;8.358;2023-12-20T04:22:16;100524.16;;;6.44
72278;BMP280;61204;49.980;8.358;2023-12-20T04:24:43;100520.16;;;6.45
72278;BMP280;61204;49.980;8.358;2023-12-20T04:27:09;100523.94;;;6.50
72278;BMP280;61204;49.980;8.358;2023-12-20T04:29:35;100531.97;;;6.48
72278;BMP280;61204;49.980;8.358;2023-12-20T04:32:01;100528.88;;;6.44
72278;BMP280;61204;49.980;8.358;2023-12-20T04:34:26;100538.28;;;6.35
72278;BMP280;61204;49.980;8.358;2023-12-20T04:36:53;100537.06;;;6.28
72278;BMP280;61204;49.980;8.358;2023-12-20T04:39:19;100534.88;;;6.19
72278;BMP280;61204;49.980;8.358;2023-12-20T04:41:44;100543.22;;;6.14
72278;BMP280;61204;49.980;8.358;2023-12-20T04:44:10;100539.22;;;5.99
72278;BMP280;61204;49.980;8.358;2023-12-20T04:46:35;100538.16;;;6.02
72278;BMP280;61204;49.980;8.358;2023-12-20T04:49:01;100532.88;;;6.04
72278;BMP280;61204;49.980;8.358;2023-12-20T04:51:27;100549.75;;;6.11
72278;BMP280;61204;49.980;8.358;2023-12-20T04:53:52;100562.09;;;6.19
72278;BMP280;61204;49.980;8.358;2023-12-20T04:56:18;100576.06;;;6.23
72278;BMP280;61204;49.980;8.358;2023-12-20T04:58:44;100578.41;;;6.35
72278;BMP280;61204;49.980;8.358;2023-12-20T05:01:10;100602.78;;;6.32
72278;BMP280;61204;49.980;8.358;2023-12-20T05:03:35;100610.19;;;6.24
72278;BMP280;61204;49.980;8.358;2023-12-20T05:06:01;100611.28;;;6.21
72278;BMP280;61204;49.980;8.358;2023-12-20T05:08:27;100614.72;;;6.22
72278;BMP280;61204;49.980;8.358;2023-12-20T05:10:56;100613.84;;;6.19
72278;BMP280;61204;49.980;8.358;2023-12-20T05:13:22;100612.53;;;6.20
72278;BMP280;61204;49.980;8.358;2023-12-20T05:15:47;100612.38;;;6.18
72278;BMP280;61204;49.980;8.358;2023-12-20T05:18:13;100615.09;;;6.11
72278;BMP280;61204;49.980;8.358;2023-12-20T05:20:42;100621.81;;;6.02
72278;BMP280;61204;49.980;8.358;2023-12-20T05:23:08;100628.50;;;6.01
72278;BMP280;61204;49.980;8.358;2023-12-20T05:25:33;100639.22;;;5.91
72278;BMP280;61204;49.980;8.358;2023-12-20T05:27:59;100629.16;;;5.78
72278;BMP280;61204;49.980;8.358;2023-12-20T05:30:24;100645.91;;;5.90
72278;BMP280;61204;49.980;8.358;2023-12-20T05:32:50;100643.16;;;5.90
72278;BMP280;61204;49.980;8.358;2023-12-20T05:35:18;100634.84;;;5.88
72278;BMP280;61204;49.980;8.358;2023-12-20T05:37:44;100638.63;;;5.93
72278;BMP280;61204;49.980;8.358;2023-12-20T05:40:10;100643.34;;;5.92
72278;BMP280;61204;49.980;8.358;2023-12-20T05:42:39;100637.56;;;5.96
72278;BMP280;61204;49.980;8.358;2023-12-20T05:45:05;100633.03;;;5.91
72278;BMP280;61204;49.980;8.358;2023-12-20T05:47:36;100636.25;;;5.82
72278;BMP280;61204;49.980;8.358;2023-12-20T05:50:02;100636.75;;;5.65
72278;BMP280;61204;49.980;8.358;2023-12-20T05:52:29;100636.72;;;5.57
72278;BMP280;61204;49.980;8.358;2023-12-20T05:54:54;100639.91;;;5.48
72278;BMP280;61204;49.980;8.358;2023-12-20T05:57:22;100651.31;;;5.39
72278;BMP280;61204;49.980;8.358;2023-12-20T05:59:48;100642.56;;;5.25
72278;BMP280;61204;49.980;8.358;2023-12-20T06:02:14;100633.13;;;5.26
72278;BMP280;61204;49.980;8.358;2023-12-20T06:04:42;100647.97;;;5.25
72278;BMP280;61204;49.980;8.358;2023-12-20T06:07:11;100652.09;;;5.18
72278;BMP280;61204;49.980;8.358;2023-12-20T06:09:38;100661.25;;;5.28
72278;BMP280;61204;49.980;8.358;2023-12-20T06:12:04;100655.25;;;5.22
72278;BMP280;61204;49.980;8.358;2023-12-20T06:14:30;100666.22;;;5.17
72278;BMP280;61204;49.980;8.358;2023-12-20T06:16:58;100674.19;;;5.15
72278;BMP280;61204;49.980;8.358;2023-12-20T06:19:23;100679.25;;;5.11
72278;BMP280;61204;49.980;8.358;2023-12-20T06:21:49;100674.41;;;4.96
72278;BMP280;61204;49.980;8.358;2023-12-20T06:24:15;100675.75;;;5.02
72278;BMP280;61204;49.980;8.358;2023-12-20T06:26:40;100664.59;;;4.85
72278;BMP280;61204;49.980;8.358;2023-12-20T06:29:06;100670.53;;;4.84
72278;BMP280;61204;49.980;8.358;2023-12-20T06:31:32;100680.22;;;4.92
72278;BMP280;61204;49.980;8.358;2023-12-20T06:33:58;100680.94;;;4.93
72278;BMP280;61204;49.980;8.358;2023-12-20T06:36:25;100670.19;;;4.87
72278;BMP280;61204;49.980;8.358;2023-12-20T06:38:52;100672.53;;;4.83
72278;BMP280;61204;49.980;8.358;2023-12-20T06:41:17;100653.19;;;4.87
72278;BMP280;61204;49.980;8.358;2023-12-20T06:43:43;100669.06;;;5.04
72278;BMP280;61204;49.980;8.358;2023-12-20T06:46:09;100682.84;;;5.06
72278;BMP280;61204;49.980;8.358;2023-12-20T06:48:35;100679.72;;;5.01
72278;BMP280;61204;49.980;8.358;2023-12-20T06:51:01;100671.03;;;5.03
72278;BMP280;61204;49.980;8.358;2023-12-20T06:53:27;100674.84;;;5.00
72278;BMP280;61204;49.980;8.358;2023-12-20T06:55:53;100667.00;;;4.96
72278;BMP280;61204;49.980;8.358;2023-12-20T06:58:23;100672.28;;;4.73
72278;BMP280;61204;49.980;8.358;2023-12-20T07:00:50;100678.25;;;4.51
72278;BMP280;61204;49.980;8.358;2023-12-20T07:03:16;100682.00;;;4.48
72278;BMP280;61204;49.980;8.358;2023-12-20T07:05:43;100666.50;;;4.35
72278;BMP280;61204;49.980;8.358;2023-12-20T07:08:09;100670.03;;;4.09
72278;BMP280;61204;49.980;8.358;2023-12-20T07:10:37;100668.84;;;3.84
72278;BMP280;61204;49.980;8.358;2023-12-20T07:13:03;100667.09;;;3.60
72278;BMP280;61204;49.980;8.358;2023-12-20T07:15:28;100672.72;;;3.62
72278;BMP280;61204;49.980;8.358;2023-12-20T07:17:54;100665.09;;;3.73
72278;BMP280;61204;49.980;8.358;2023-12-20T07:20:20;100668.16;;;4.04
72278;BMP280;61204;49.980;8.358;2023-12-20T07:22:45;100681.31;;;4.13
72278;BMP280;61204;49.980;8.358;2023-12-20T07:25:11;100689.63;;;4.49
72278;BMP280;61204;49.980;8.358;2023-12-20T07:27:36;100694.28;;;4.62
72278;BMP280;61204;49.980;8.358;2023-12-20T07:30:02;100690.59;;;4.81
72278;BMP280;61204;49.980;8.358;2023-12-20T07:32:29;100706.69;;;4.99
72278;BMP280;61204;49.980;8.358;2023-12-20T07:34:54;100710.00;;;5.06
72278;BMP280;61204;49.980;8.358;2023-12-20T07:37:20;100718.78;;;5.12
72278;BMP280;61204;49.980;8.358;2023-12-20T07:39:46;100714.44;;;5.16
72278;BMP280;61204;49.980;8.358;2023-12-20T07:42:12;100712.31;;;5.22
72278;BMP280;61204;49.980;8.358;2023-12-20T07:44:37;100717.63;;;5.28
72278;BMP280;61204;49.980;8.358;2023-12-20T07:47:03;100720.25;;;5.20
72278;BMP280;61204;49.980;8.358;2023-12-20T07:49:30;100717.34;;;5.18
72278;BMP280;61204;49.980;8.358;2023-12-20T07:51:57;100722.06;;;5.18
72278;BMP280;61204;49.980;8.358;2023-12-20T07:54:22;100726.25;;;5.19
72278;BMP280;61204;49.980;8.358;2023-12-20T07:56:49;100721.38;;;5.25
72278;BMP280;61204;49.980;8.358;2023-12-20T07:59:14;100735.03;;;5.33
72278;BMP280;61204;49.980;8.358;2023-12-20T08:01:40;100731.44;;;5.38
72278;BMP280;61204;49.980;8.358;2023-12-20T08:04:07;100738.19;;;5.44
72278;BMP280;61204;49.980;8.358;2023-12-20T08:06:35;100732.25;;;5.53
72278;BMP280;61204;49.980;8.358;2023-12-20T08:09:00;100732.44;;;5.56
72278;BMP280;61204;49.980;8.358;2023-12-20T08:11:26;100741.19;;;5.62
72278;BMP280;61204;49.980;8.358;2023-12-20T08:13:51;100738.13;;;5.65
72278;BMP280;61204;49.980;8.358;2023-12-20T08:16:17;100743.16;;;5.61
72278;BMP280;61204;49.980;8.358;2023-12-20T08:18:43;100735.00;;;5.61
72278;BMP280;61204;49.980;8.358;2023-12-20T08:21:09;100736.13;;;5.66
72278;BMP280;61204;49.980;8.358;2023-12-20T08:23:37;100742.28;;;5.66
72278;BMP280;61204;49.980;8.358;2023-12-20T08:26:06;100748.50;;;5.74
72278;BMP280;61204;49.980;8.358;2023-12-20T08:28:33;100746.16;;;5.78
72278;BMP280;61204;49.980;8.358;2023-12-20T08:30:59;100747.09;;;5.81
72278;BMP280;61204;49.980;8.358;2023-12-20T08:33:25;100746.03;;;5.84
72278;BMP280;61204;49.980;8.358;2023-12-20T08:35:51;100755.34;;;6.04
72278;BMP280;61204;49.980;8.358;2023-12-20T08:38:19;100757.72;;;6.07
72278;BMP280;61204;49.980;8.358;2023-12-20T08:40:45;100759.38;;;6.11
72278;BMP280;61204;49.980;8.358;2023-12-20T08:43:11;100760.63;;;6.02
72278;BMP280;61204;49.980;8.358;2023-12-20T08:45:37;100767.00;;;6.12
72278;BMP280;61204;49.980;8.358;2023-12-20T08:48:04;100769.66;;;5.97
72278;BMP280;61204;49.980;8.358;2023-12-20T08:50:30;100767.31;;;6.09
72278;BMP280;61204;49.980;8.358;2023-12-20T08:52:56;100771.72;;;6.12
72278;BMP280;61204;49.980;8.358;2023-12-20T08:55:24;100763.00;;;6.13
72278;BMP280;61204;49.980;8.358;2023-12-20T08:57:49;100766.66;;;6.16
72278;BMP280;61204;49.980;8.358;2023-12-20T09:00:16;100762.47;;;6.15
72278;BMP280;61204;49.980;8.358;2023-12-20T09:02:42;100765.72;;;6.13
72278;BMP280;61204;49.980;8.358;2023-12-20T09:05:07;100760.13;;;6.19
72278;BMP280;61204;49.980;8.358;2023-12-20T09:07:33;100761.41;;;6.18
72278;BMP280;61204;49.980;8.358;2023-12-20T09:09:59;100750.84;;;6.14
72278;BMP280;61204;49.980;8.358;2023-12-20T09:12:25;100754.88;;;6.21
72278;BMP280;61204;49.980;8.358;2023-12-20T09:14:51;100764.31;;;6.20
72278;BMP280;61204;49.980;8.358;2023-12-20T09:17:17;100759.56;;;6.20
72278;BMP280;61204;49.980;8.358;2023-12-20T09:19:48;100757.41;;;6.19
72278;BMP280;61204;49.980;8.358;2023-12-20T09:22:14;100757.81;;;6.30
72278;BMP280;61204;49.980;8.358;2023-12-20T09:24:39;100757.75;;;6.23
72278;BMP280;61204;49.980;8.358;2023-12-20T09:27:05;100757.63;;;6.36
72278;BMP280;61204;49.980;8.358;2023-12-20T09:29:34;100761.09;;;6.37
72278;BMP280;61204;49.980;8.358;2023-12-20T09:31:59;100756.19;;;6.43
72278;BMP280;61204;49.980;8.358;2023-12-20T09:34:25;100760.19;;;6.49
72278;BMP280;61204;49.980;8.358;2023-12-20T09:36:52;100759.28;;;6.54
72278;BMP280;61204;49.980;8.358;2023-12-20T09:39:19;100754.03;;;6.56
72278;BMP280;61204;49.980;8.358;2023-12-20T09:42:03;100761.88;;;6.68
72278;BMP280;61204;49.980;8.358;2023-12-20T09:44:30;100753.69;;;6.68
72278;BMP280;61204;49.980;8.358;2023-12-20T09:47:03;100760.94;;;6.65
72278;BMP280;61204;49.980;8.358;2023-12-20T09:49:30;100764.59;;;6.60
72278;BMP280;61204;49.980;8.358;2023-12-20T09:51:57;100767.69;;;6.79
72278;BMP280;61204;49.980;8.358;2023-12-20T09:54:26;100765.31;;;6.76
72278;BMP280;61204;49.980;8.358;2023-12-20T09:56:54;100758.97;;;6.73
72278;BMP280;61204;49.980;8.358;2023-12-20T09:59:19;100772.78;;;6.91
72278;BMP280;61204;49.980;8.358;2023-12-20T10:01:45;100772.41;;;6.79
72278;BMP280;61204;49.980;8.358;2023-12-20T10:04:12;100765.88;;;6.90
72278;BMP280;61204;49.980;8.358;2023-12-20T10:06:42;100763.53;;;6.94
72278;BMP280;61204;49.980;8.358;2023-12-20T10:09:10;100766.75;;;7.00
72278;BMP280;61204;49.980;8.358;2023-12-20T10:11:39;100767.88;;;7.12
72278;BMP280;61204;49.980;8.358;2023-12-20T10:14:08;100752.41;;;7.15
72278;BMP280;61204;49.980;8.358;2023-12-20T10:16:37;100767.31;;;7.21
72278;BMP280;61204;49.980;8.358;2023-12-20T10:19:03;100759.34;;;7.23
72278;BMP280;61204;49.980;8.358;2023-12-20T10:21:29;100764.00;;;7.30
72278;BMP280;61204;49.980;8.358;2023-12-20T10:23:56;100760.19;;;7.33
72278;BMP280;61204;49.980;8.358;2023-12-20T10:26:24;100755.28;;;7.40
72278;BMP280;61204;49.980;8.358;2023-12-20T10:28:54;100750.00;;;7.42
72278;BMP280;61204;49.980;8.358;2023-12-20T10:31:32;100742.72;;;7.36
72278;BMP280;61204;49.980;8.358;2023-12-20T10:34:01;100734.91;;;7.41
72278;BMP280;61204;49.980;8.358;2023-12-20T10:36:30;100720.34;;;7.53
72278;BMP280;61204;49.980;8.358;2023-12-20T10:38:58;100716.44;;;7.64
72278;BMP280;61204;49.980;8.358;2023-12-20T10:41:28;100712.44;;;7.73
72278;BMP280;61204;49.980;8.358;2023-12-20T10:43:59;100718.72;;;7.90
72278;BMP280;61204;49.980;8.358;2023-12-20T10:46:31;100713.75;;;7.97
72278;BMP280;61204;49.980;8.358;2023-12-20T10:48:58;100716.03;;;7.75
72278;BMP280;61204;49.980;8.358;2023-12-20T10:51:25;100710.53;;;7.90
72278;BMP280;61204;49.980;8.358;2023-12-20T10:53:55;100687.00;;;8.03
72278;BMP280;61204;49.980;8.358;2023-12-20T10:56:22;100692.69;;;7.89
72278;BMP280;61204;49.980;8.358;2023-12-20T10:58:51;100685.09;;;7.80
72278;BMP280;61204;49.980;8.358;2023-12-20T11:01:18;100684.56;;;7.74
72278;BMP280;61204;49.980;8.358;2023-12-20T11:03:51;100697.28;;;7.79
72278;BMP280;61204;49.980;8.358;2023-12-20T11:06:42;100693.25;;;7.88
72278;BMP280;61204;49.980;8.358;2023-12-20T11:09:24;100698.47;;;7.94
72278;BMP280;61204;49.980;8.358;2023-12-20T11:12:25;100684.72;;;7.84
72278;BMP280;61204;49.980;8.358;2023-12-20T11:15:06;100689.28;;;7.81
72278;BMP280;61204;49.980;8.358;2023-12-20T11:17:33;100699.44;;;7.88
72278;BMP280;61204;49.980;8.358;2023-12-20T11:22:30;100700.88;;;7.89
72278;BMP280;61204;49.980;8.358;2023-12-20T11:27:33;100706.97;;;8.05
72278;BMP280;61204;49.980;8.358;2023-12-20T11:30:03;100702.09;;;8.04
72278;BMP280;61204;49.980;8.358;2023-12-20T11:32:35;100714.84;;;8.26
72278;BMP280;61204;49.980;8.358;2023-12-20T11:37:36;100724.03;;;8.46
72278;BMP280;61204;49.980;8.358;2023-12-20T11:40:06;100722.41;;;8.43
72278;BMP280;61204;49.980;8.358;2023-12-20T11:42:44;100709.84;;;8.15
72278;BMP280;61204;49.980;8.358;2023-12-20T11:45:17;100703.66;;;8.14
72278;BMP280;61204;49.980;8.358;2023-12-20T11:47:47;100708.50;;;8.24
72278;BMP280;61204;49.980;8.358;2023-12-20T11:50:16;100697.63;;;8.16
72278;BMP280;61204;49.980;8.358;2023-12-20T11:52:48;100708.84;;;8.03
72278;BMP280;61204;49.980;8.358;2023-12-20T11:55:15;100709.94;;;8.00
72278;BMP280;61204;49.980;8.358;2023-12-20T11:57:42;100699.91;;;7.95
72278;BMP280;61204;49.980;8.358;2023-12-20T12:00:10;100691.25;;;7.88
72278;BMP280;61204;49.980;8.358;2023-12-20T12:02:36;100690.88;;;7.92
72278;BMP280;61204;49.980;8.358;2023-12-20T12:05:02;100679.94;;;7.92
72278;BMP280;61204;49.980;8.358;2023-12-20T12:07:31;100672.47;;;7.93
72278;BMP280;61204;49.980;8.358;2023-12-20T12:09:57;100670.50;;;7.85
72278;BMP280;61204;49.980;8.358;2023-12-20T12:12:23;100679.41;;;7.86
72278;BMP280;61204;49.980;8.358;2023-12-20T12:14:53;100646.03;;;8.03
72278;BMP280;61204;49.980;8.358;2023-12-20T12:17:19;100646.75;;;8.03
72278;BMP280;61204;49.980;8.358;2023-12-20T12:19:45;100629.41;;;8.33
72278;BMP280;61204;49.980;8.358;2023-12-20T12:22:13;100656.66;;;8.41
72278;BMP280;61204;49.980;8.358;2023-12-20T12:24:45;100651.13;;;8.49
72278;BMP280;61204;49.980;8.358;2023-12-20T12:27:13;100652.31;;;8.38
72278;BMP280;61204;49.980;8.358;2023-12-20T12:29:39;100658.38;;;8.54
72278;BMP280;61204;49.980;8.358;2023-12-20T12:32:06;100666.94;;;8.50
72278;BMP280;61204;49.980;8.358;2023-12-20T12:34:36;100662.13;;;8.41
72278;BMP280;61204;49.980;8.358;2023-12-20T12:37:04;100668.06;;;8.47
72278;BMP280;61204;49.980;8.358;2023-12-20T12:39:29;100653.84;;;8.49
72278;BMP280;61204;49.980;8.358;2023-12-20T12:41:56;100643.91;;;8.61
72278;BMP280;61204;49.980;8.358;2023-12-20T12:44:22;100652.75;;;8.52
72278;BMP280;61204;49.980;8.358;2023-12-20T12:46:52;100644.56;;;8.27
72278;BMP280;61204;49.980;8.358;2023-12-20T12:49:19;100642.03;;;8.21
72278;BMP280;61204;49.980;8.358;2023-12-20T12:51:49;100633.50;;;8.17
72278;BMP280;61204;49.980;8.358;2023-12-20T12:54:14;100619.47;;;8.21
72278;BMP280;61204;49.980;8.358;2023-12-20T12:56:42;100616.53;;;8.26
72278;BMP280;61204;49.980;8.358;2023-12-20T12:59:14;100596.63;;;8.51
72278;BMP280;61204;49.980;8.358;2023-12-20T13:01:40;100610.75;;;8.39
72278;BMP280;61204;49.980;8.358;2023-12-20T13:04:06;100605.94;;;8.30
72278;BMP280;61204;49.980;8.358;2023-12-20T13:06:38;100614.84;;;8.31
72278;BMP280;61204;49.980;8.358;2023-12-20T13:09:06;100610.38;;;8.43
72278;BMP280;61204;49.980;8.358;2023-12-20T13:11:32;100598.88;;;8.62
72278;BMP280;61204;49.980;8.358;2023-12-20T13:13:58;100593.81;;;8.58
72278;BMP280;61204;49.980;8.358;2023-12-20T13:16:24;100582.81;;;8.66
72278;BMP280;61204;49.980;8.358;2023-12-20T13:18:50;100586.69;;;8.63
72278;BMP280;61204;49.980;8.358;2023-12-20T13:21:15;100568.97;;;8.81
72278;BMP280;61204;49.980;8.358;2023-12-20T13:23:42;100563.97;;;8.87
72278;BMP280;61204;49.980;8.358;2023-12-20T13:26:08;100550.16;;;8.85
72278;BMP280;61204;49.980;8.358;2023-12-20T13:28:33;100535.06;;;8.84
72278;BMP280;61204;49.980;8.358;2023-12-20T13:30:59;100552.75;;;8.66
72278;BMP280;61204;49.980;8.358;2023-12-20T13:33:25;100552.25;;;8.94
72278;BMP280;61204;49.980;8.358;2023-12-20T13:35:50;100562.72;;;8.71
72278;BMP280;61204;49.980;8.358;2023-12-20T13:38:19;100545.91;;;8.57
72278;BMP280;61204;49.980;8.358;2023-12-20T13:40:45;100556.84;;;8.57
72278;BMP280;61204;49.980;8.358;2023-12-20T13:43:10;100550.41;;;8.80
72278;BMP280;61204;49.980;8.358;2023-12-20T13:45:37;100553.63;;;8.68
72278;BMP280;61204;49.980;8.358;2023-12-20T13:48:03;100535.16;;;9.04
72278;BMP280;61204;49.980;8.358;2023-12-20T13:50:29;100541.31;;;8.77
72278;BMP280;61204;49.980;8.358;2023-12-20T13:52:57;100553.56;;;8.76
72278;BMP280;61204;49.980;8.358;2023-12-20T13:55:23;100551.31;;;8.65
72278;BMP280;61204;49.980;8.358;2023-12-20T13:57:52;100545.84;;;8.65
72278;BMP280;61204;49.980;8.358;2023-12-20T14:00:18;100557.56;;;8.58
72278;BMP280;61204;49.980;8.358;2023-12-20T14:02:44;100558.38;;;8.33
72278;BMP280;61204;49.980;8.358;2023-12-20T14:05:11;100552.81;;;8.24
72278;BMP280;61204;49.980;8.358;2023-12-20T14:07:38;100559.72;;;8.25
72278;BMP280;61204;49.980;8.358;2023-12-20T14:10:04;100554.09;;;8.23
72278;BMP280;61204;49.980;8.358;2023-12-20T14:12:31;100566.06;;;8.27
72278;BMP280;61204;49.980;8.358;2023-12-20T14:15:00;100560.69;;;8.37